createdAt,value
2017-09-06T00:01:33.141Z,18.40
2017-09-06T00:04:00.727Z,18.30
2017-09-06T00:06:28.236Z,18.30
2017-09-06T00:08:55.782Z,18.20
2017-09-06T00:11:23.324Z,18.20
2017-09-06T00:13:50.835Z,18.20
2017-09-06T00:16:18.383Z,18.10
2017-09-06T00:18:45.940Z,18.10
2017-09-06T00:21:14.203Z,18.00
2017-09-06T00:23:41.700Z,18.00
2017-09-06T00:26:09.600Z,18.00
2017-09-06T00:28:37.112Z,17.90
2017-09-06T00:31:04.616Z,17.80
2017-09-06T00:33:32.171Z,17.70
2017-09-06T00:35:59.674Z,17.70
2017-09-06T00:38:27.175Z,17.70
2017-09-06T00:40:54.827Z,17.60
2017-09-06T00:43:22.345Z,17.50
2017-09-06T00:45:49.849Z,17.50
2017-09-06T00:48:17.421Z,17.50
2017-09-06T00:50:44.934Z,17.40
2017-09-06T00:53:13.195Z,17.50
2017-09-06T00:55:40.746Z,17.50
2017-09-06T00:58:08.248Z,17.50
2017-09-06T01:00:35.759Z,17.60
2017-09-06T01:03:03.555Z,17.50
2017-09-06T01:05:31.056Z,17.70
2017-09-06T01:07:58.556Z,17.70
2017-09-06T01:10:26.107Z,17.70
2017-09-06T01:12:53.655Z,17.70
2017-09-06T01:15:21.175Z,17.80
2017-09-06T01:17:48.968Z,17.80
2017-09-06T01:20:16.472Z,17.70
2017-09-06T01:22:43.971Z,17.70
2017-09-06T01:25:11.502Z,17.70
2017-09-06T01:27:39.006Z,17.70
2017-09-06T01:30:06.634Z,17.70
2017-09-06T01:32:34.207Z,17.50
2017-09-06T01:35:01.707Z,17.50
2017-09-06T01:37:29.215Z,17.40
2017-09-06T01:39:56.808Z,17.40
2017-09-06T01:42:24.311Z,17.50
2017-09-06T01:44:51.809Z,17.50
2017-09-06T01:47:19.598Z,17.50
2017-09-06T01:49:47.103Z,17.50
2017-09-06T01:52:14.601Z,17.50
2017-09-06T01:54:42.191Z,17.50
2017-09-06T01:57:09.708Z,17.60
2017-09-06T01:59:37.203Z,17.70
2017-09-06T02:02:04.981Z,17.70
2017-09-06T02:04:32.609Z,17.60
2017-09-06T02:07:00.244Z,17.60
2017-09-06T02:09:27.815Z,17.50
2017-09-06T02:11:55.402Z,17.40
2017-09-06T02:14:22.920Z,17.50
2017-09-06T02:16:50.822Z,17.60
2017-09-06T02:19:18.327Z,17.60
2017-09-06T02:21:46.595Z,17.60
2017-09-06T02:24:14.496Z,17.60
2017-09-06T02:26:41.994Z,17.60
2017-09-06T02:29:09.495Z,17.60
2017-09-06T02:31:37.343Z,17.60
2017-09-06T02:34:04.847Z,17.60
2017-09-06T02:36:32.344Z,17.60
2017-09-06T02:39:00.147Z,17.60
2017-09-06T02:41:27.649Z,17.60
2017-09-06T02:43:55.155Z,17.60
2017-09-06T02:46:23.007Z,17.60
2017-09-06T02:48:50.507Z,17.60
2017-09-06T02:51:18.019Z,17.60
2017-09-06T02:53:45.578Z,17.60
2017-09-06T02:56:13.071Z,17.60
2017-09-06T02:58:40.566Z,17.50
2017-09-06T03:01:08.879Z,17.40
2017-09-06T03:03:36.404Z,17.30
2017-09-06T03:06:03.904Z,17.30
2017-09-06T03:08:31.487Z,17.20
2017-09-06T03:10:58.999Z,17.20
2017-09-06T03:13:26.507Z,17.10
2017-09-06T03:15:54.403Z,17.00
2017-09-06T03:18:21.915Z,16.90
2017-09-06T03:20:49.519Z,16.90
2017-09-06T03:23:17.399Z,16.90
2017-09-06T03:25:44.913Z,16.90
2017-09-06T03:28:12.423Z,17.00
2017-09-06T03:30:40.014Z,17.00
2017-09-06T03:33:07.527Z,17.10
2017-09-06T03:35:35.031Z,17.00
2017-09-06T03:38:02.902Z,16.90
2017-09-06T03:40:30.412Z,16.90
2017-09-06T03:42:57.919Z,16.80
2017-09-06T03:45:25.492Z,16.90
2017-09-06T03:47:53.762Z,17.00
2017-09-06T03:50:21.267Z,16.90
2017-09-06T03:52:48.851Z,17.00
2017-09-06T03:55:16.369Z,17.10
2017-09-06T03:57:43.875Z,17.20
2017-09-06T04:00:11.791Z,17.20
2017-09-06T04:02:39.317Z,17.30
2017-09-06T04:05:06.858Z,17.40
2017-09-06T04:07:34.403Z,17.40
2017-09-06T04:10:01.911Z,17.40
2017-09-06T04:12:29.414Z,17.40
2017-09-06T04:14:56.994Z,17.50
2017-09-06T04:17:24.500Z,17.50
2017-09-06T04:19:52.040Z,17.50
2017-09-06T04:22:19.915Z,17.50
2017-09-06T04:24:47.411Z,17.50
2017-09-06T04:27:14.911Z,17.50
2017-09-06T04:29:42.458Z,17.50
2017-09-06T04:32:09.979Z,17.50
2017-09-06T04:34:37.478Z,17.30
2017-09-06T04:37:05.025Z,17.30
2017-09-06T04:39:32.520Z,17.20
2017-09-06T04:42:00.018Z,17.20
2017-09-06T04:44:27.811Z,17.20
2017-09-06T04:46:55.326Z,17.20
2017-09-06T04:51:56.642Z,17.10
2017-09-06T04:54:24.167Z,17.20
2017-09-06T04:56:51.666Z,17.20
2017-09-06T04:59:19.227Z,17.10
2017-09-06T05:01:46.727Z,17.20
2017-09-06T05:04:14.228Z,17.20
2017-09-06T05:06:41.783Z,17.20
2017-09-06T05:09:09.279Z,17.20
2017-09-06T05:11:36.779Z,17.30
2017-09-06T05:14:04.552Z,17.30
2017-09-06T05:16:32.051Z,17.40
2017-09-06T05:18:59.564Z,17.40
2017-09-06T05:21:27.402Z,17.40
2017-09-06T05:23:54.931Z,17.40
2017-09-06T05:26:22.431Z,17.50
2017-09-06T05:28:49.983Z,17.50
2017-09-06T05:31:17.483Z,17.60
2017-09-06T05:33:44.979Z,17.50
2017-09-06T05:36:12.533Z,17.60
2017-09-06T05:38:40.067Z,17.70
2017-09-06T05:41:07.575Z,17.70
2017-09-06T05:43:35.116Z,17.70
2017-09-06T05:46:02.635Z,17.80
2017-09-06T05:48:30.139Z,17.70
2017-09-06T05:50:57.948Z,17.80
2017-09-06T05:53:25.443Z,17.80
2017-09-06T05:55:52.943Z,17.90
2017-09-06T05:58:20.847Z,18.00
2017-09-06T06:00:48.343Z,18.20
2017-09-06T06:03:15.855Z,18.70
2017-09-06T06:05:43.402Z,19.20
2017-09-06T06:08:10.903Z,19.80
2017-09-06T06:10:38.398Z,19.90
2017-09-06T06:13:05.963Z,20.20
2017-09-06T06:15:33.471Z,20.50
2017-09-06T06:18:00.972Z,20.60
2017-09-06T06:20:28.522Z,20.70
2017-09-06T06:22:56.021Z,20.50
2017-09-06T06:25:23.524Z,20.60
2017-09-06T06:27:51.080Z,20.90
2017-09-06T06:30:18.591Z,21.30
2017-09-06T06:32:46.087Z,21.60
2017-09-06T06:35:14.079Z,21.60
2017-09-06T06:37:41.583Z,22.10
2017-09-06T06:40:09.074Z,22.30
2017-09-06T06:42:36.649Z,22.20
2017-09-06T06:45:04.144Z,21.10
2017-09-06T06:47:31.667Z,20.80
2017-09-06T06:49:59.203Z,20.60
2017-09-06T06:52:26.703Z,20.40
2017-09-06T06:54:54.200Z,20.10
2017-09-06T06:57:21.995Z,20.10
2017-09-06T06:59:49.493Z,19.70
2017-09-06T07:02:16.987Z,19.60
2017-09-06T07:04:44.539Z,19.80
2017-09-06T07:07:12.071Z,20.30
2017-09-06T07:09:39.572Z,20.30
2017-09-06T07:12:07.459Z,20.30
2017-09-06T07:14:34.964Z,20.10
2017-09-06T07:17:02.462Z,20.20
2017-09-06T07:19:30.311Z,20.20
2017-09-06T07:21:57.811Z,20.10
2017-09-06T07:24:25.324Z,20.30
2017-09-06T07:26:52.858Z,21.00
2017-09-06T07:29:20.367Z,22.10
2017-09-06T07:31:47.866Z,23.00
2017-09-06T07:34:15.435Z,22.70
2017-09-06T07:36:42.939Z,22.40
2017-09-06T07:39:10.443Z,22.00
2017-09-06T07:41:37.989Z,22.00
2017-09-06T07:44:05.496Z,22.20
2017-09-06T07:46:33.042Z,22.70
2017-09-06T07:49:00.675Z,22.00
2017-09-06T07:51:28.186Z,21.40
2017-09-06T07:53:55.730Z,21.40
2017-09-06T07:56:23.283Z,21.80
2017-09-06T07:58:50.791Z,22.60
2017-09-06T08:01:18.315Z,23.60
2017-09-06T08:03:45.864Z,24.30
2017-09-06T08:06:13.363Z,24.10
2017-09-06T08:08:40.868Z,23.30
2017-09-06T08:11:08.431Z,22.20
2017-09-06T08:13:35.931Z,21.60
2017-09-06T08:16:03.430Z,22.30
2017-09-06T08:18:30.983Z,23.40
2017-09-06T08:20:59.256Z,22.80
2017-09-06T08:23:26.779Z,22.80
2017-09-06T08:25:54.352Z,23.90
2017-09-06T08:28:21.851Z,23.70
2017-09-06T08:30:49.359Z,23.30
2017-09-06T08:33:17.332Z,22.80
2017-09-06T08:35:44.838Z,23.10
2017-09-06T08:38:12.359Z,23.50
2017-09-06T08:40:39.929Z,23.20
2017-09-06T08:43:07.437Z,23.10
2017-09-06T08:45:34.938Z,22.60
2017-09-06T08:48:02.727Z,22.90
2017-09-06T08:50:30.987Z,23.50
2017-09-06T08:52:59.260Z,24.10
2017-09-06T08:55:26.820Z,24.10
2017-09-06T08:57:54.328Z,24.30
2017-09-06T09:00:21.847Z,24.40
2017-09-06T09:02:49.390Z,24.40
2017-09-06T09:05:16.894Z,23.80
2017-09-06T09:07:44.400Z,22.70
2017-09-06T09:10:11.954Z,21.90
2017-09-06T09:12:39.459Z,21.40
2017-09-06T09:15:06.958Z,21.40
2017-09-06T09:17:34.491Z,21.20
2017-09-06T09:20:01.991Z,21.50
2017-09-06T09:22:29.487Z,21.90
2017-09-06T09:24:57.046Z,21.80
2017-09-06T09:27:24.551Z,22.20
2017-09-06T09:29:52.055Z,22.30
2017-09-06T09:32:19.600Z,22.30
2017-09-06T09:34:47.103Z,22.90
2017-09-06T09:37:14.603Z,23.10
2017-09-06T09:39:42.147Z,23.40
2017-09-06T09:42:09.685Z,23.30
2017-09-06T09:44:37.184Z,22.70
2017-09-06T09:47:04.743Z,22.70
2017-09-06T09:49:32.243Z,22.70
2017-09-06T09:51:59.751Z,22.70
2017-09-06T09:54:27.335Z,23.20
2017-09-06T09:56:54.831Z,23.70
2017-09-06T09:59:22.327Z,23.60
2017-09-06T10:01:49.906Z,23.10
2017-09-06T10:04:17.395Z,22.80
2017-09-06T10:06:44.892Z,22.40
2017-09-06T10:09:12.445Z,22.40
2017-09-06T10:11:39.951Z,22.50
2017-09-06T10:14:08.228Z,22.30
2017-09-06T10:16:35.791Z,22.20
2017-09-06T10:19:03.292Z,22.20
2017-09-06T10:21:30.782Z,22.50
2017-09-06T10:23:58.323Z,23.30
2017-09-06T10:26:25.820Z,24.40
2017-09-06T10:28:53.319Z,24.50
2017-09-06T10:31:20.866Z,24.20
2017-09-06T10:33:48.375Z,23.90
2017-09-06T10:36:15.872Z,24.30
2017-09-06T10:38:43.417Z,24.70
2017-09-06T10:41:10.916Z,24.20
2017-09-06T10:43:38.415Z,24.50
2017-09-06T10:46:05.975Z,24.70
2017-09-06T10:48:33.486Z,25.00
2017-09-06T10:51:00.995Z,24.80
2017-09-06T10:53:28.544Z,24.10
2017-09-06T10:55:56.056Z,23.80
2017-09-06T10:58:23.584Z,23.70
2017-09-06T11:00:51.143Z,23.50
2017-09-06T11:03:18.651Z,23.10
2017-09-06T11:05:46.150Z,22.80
2017-09-06T11:08:13.716Z,22.20
2017-09-06T11:10:41.211Z,21.50
2017-09-06T11:13:08.711Z,21.50
2017-09-06T11:15:36.283Z,21.50
2017-09-06T11:18:03.792Z,21.80
2017-09-06T11:20:31.326Z,22.20
2017-09-06T11:22:58.880Z,22.00
2017-09-06T11:25:26.371Z,22.50
2017-09-06T11:27:53.867Z,22.80
2017-09-06T11:30:21.415Z,23.10
2017-09-06T11:32:48.919Z,23.10
2017-09-06T11:35:16.424Z,23.80
2017-09-06T11:37:44.310Z,23.70
2017-09-06T11:40:11.827Z,23.60
2017-09-06T11:42:39.322Z,23.20
2017-09-06T11:45:06.883Z,22.80
2017-09-06T11:47:34.388Z,22.10
2017-09-06T11:50:01.895Z,20.40
2017-09-06T11:52:30.195Z,18.30
2017-09-06T11:54:57.717Z,18.20
2017-09-06T11:57:25.233Z,18.00
2017-09-06T11:59:52.806Z,17.80
2017-09-06T12:02:20.312Z,17.60
2017-09-06T12:04:47.806Z,17.50
2017-09-06T12:07:15.374Z,17.60
2017-09-06T12:09:42.882Z,18.00
2017-09-06T12:12:10.394Z,18.90
2017-09-06T12:14:37.958Z,19.70
2017-09-06T12:17:05.458Z,20.00
2017-09-06T12:19:32.967Z,20.80
2017-09-06T12:22:00.524Z,21.80
2017-09-06T12:24:28.027Z,22.20
2017-09-06T12:26:55.538Z,21.40
2017-09-06T12:29:23.098Z,20.80
2017-09-06T12:31:50.599Z,20.30
2017-09-06T12:34:18.111Z,20.90
2017-09-06T12:36:45.673Z,21.20
2017-09-06T12:39:13.171Z,21.10
2017-09-06T12:41:40.691Z,21.60
2017-09-06T12:44:08.243Z,21.30
2017-09-06T12:46:35.741Z,20.80
2017-09-06T12:49:03.244Z,20.50
2017-09-06T12:51:30.794Z,20.60
2017-09-06T12:53:58.295Z,20.60
2017-09-06T12:56:25.795Z,21.00
2017-09-06T12:58:53.351Z,21.20
2017-09-06T13:01:20.846Z,20.90
2017-09-06T13:03:48.341Z,20.70
2017-09-06T13:06:17.018Z,20.90
2017-09-06T13:08:44.516Z,20.90
2017-09-06T13:11:12.014Z,21.00
2017-09-06T13:13:39.562Z,20.90
2017-09-06T13:16:07.068Z,21.40
2017-09-06T13:18:34.567Z,21.50
2017-09-06T13:21:02.123Z,21.60
2017-09-06T13:23:29.615Z,21.20
2017-09-06T13:25:57.119Z,21.50
2017-09-06T13:28:24.699Z,21.50
2017-09-06T13:30:52.199Z,21.80
2017-09-06T13:33:19.721Z,22.70
2017-09-06T13:35:47.275Z,22.60
2017-09-06T13:38:14.775Z,22.30
2017-09-06T13:40:42.280Z,22.10
2017-09-06T13:43:09.831Z,22.20
2017-09-06T13:45:37.371Z,22.30
2017-09-06T13:48:05.637Z,22.20
2017-09-06T13:50:33.210Z,22.20
2017-09-06T13:53:00.707Z,22.90
2017-09-06T13:55:28.210Z,22.80
2017-09-06T13:57:55.762Z,22.50
2017-09-06T14:00:23.270Z,21.70
2017-09-06T14:02:50.775Z,21.50
2017-09-06T14:05:18.610Z,21.80
2017-09-06T14:07:46.115Z,22.10
2017-09-06T14:10:13.632Z,22.20
2017-09-06T14:12:41.491Z,21.80
2017-09-06T14:15:08.987Z,22.00
2017-09-06T14:17:36.486Z,22.80
2017-09-06T14:20:04.288Z,22.30
2017-09-06T14:22:31.803Z,22.10
2017-09-06T14:24:59.309Z,21.70
2017-09-06T14:27:26.861Z,21.00
2017-09-06T14:29:54.379Z,20.80
2017-09-06T14:32:21.889Z,20.80
2017-09-06T14:34:49.438Z,20.60
2017-09-06T14:37:16.935Z,20.80
2017-09-06T14:39:44.437Z,20.60
2017-09-06T14:42:12.014Z,20.50
2017-09-06T14:44:39.514Z,20.80
2017-09-06T14:47:07.011Z,20.90
2017-09-06T14:49:34.567Z,21.20
2017-09-06T14:52:02.073Z,21.30
2017-09-06T14:54:29.569Z,21.30
2017-09-06T14:56:57.130Z,21.30
2017-09-06T14:59:24.678Z,21.10
2017-09-06T15:01:52.179Z,21.20
2017-09-06T15:04:19.971Z,21.30
2017-09-06T15:06:47.480Z,21.50
2017-09-06T15:09:14.990Z,22.00
2017-09-06T15:11:42.555Z,21.90
2017-09-06T15:14:10.075Z,21.90
2017-09-06T15:16:37.610Z,22.00
2017-09-06T15:19:05.495Z,21.80
2017-09-06T15:21:32.992Z,21.70
2017-09-06T15:24:00.487Z,21.20
2017-09-06T15:26:28.054Z,21.10
2017-09-06T15:28:55.546Z,21.10
2017-09-06T15:31:23.063Z,21.30
2017-09-06T15:33:50.619Z,21.30
2017-09-06T15:36:18.893Z,20.50
2017-09-06T15:38:46.403Z,20.50
2017-09-06T15:41:14.263Z,20.60
2017-09-06T15:43:41.774Z,20.80
2017-09-06T15:46:09.274Z,20.90
2017-09-06T15:48:36.823Z,21.10
2017-09-06T15:51:04.347Z,21.10
2017-09-06T15:53:31.876Z,20.90
2017-09-06T15:55:59.432Z,20.80
2017-09-06T15:58:26.964Z,20.70
2017-09-06T16:00:54.467Z,20.60
2017-09-06T16:03:22.255Z,20.50
2017-09-06T16:05:49.758Z,20.30
2017-09-06T16:08:17.271Z,20.30
2017-09-06T16:10:44.816Z,19.90
2017-09-06T16:13:12.319Z,19.70
2017-09-06T16:15:39.828Z,19.60
2017-09-06T16:18:08.394Z,19.40
2017-09-06T16:20:35.899Z,19.40
2017-09-06T16:23:03.413Z,19.30
2017-09-06T16:25:30.971Z,19.30
2017-09-06T16:27:58.475Z,19.10
2017-09-06T16:30:26.002Z,19.00
2017-09-06T16:32:53.991Z,18.90
2017-09-06T16:35:21.499Z,18.80
2017-09-06T16:37:49.003Z,18.70
2017-09-06T16:40:16.868Z,18.60
2017-09-06T16:42:44.373Z,18.50
2017-09-06T16:45:11.876Z,18.60
2017-09-06T16:47:39.485Z,18.50
2017-09-06T16:50:07.004Z,18.50
2017-09-06T16:52:34.527Z,18.40
2017-09-06T16:55:02.079Z,18.40
2017-09-06T16:57:29.576Z,18.30
2017-09-06T16:59:57.080Z,18.30
2017-09-06T17:02:24.643Z,18.20
2017-09-06T17:04:52.151Z,18.10
2017-09-06T17:07:19.652Z,18.00
2017-09-06T17:09:48.137Z,17.90
2017-09-06T17:12:15.648Z,17.90
2017-09-06T17:14:43.147Z,17.70
2017-09-06T17:17:10.959Z,17.70
2017-09-06T17:19:38.458Z,17.50
2017-09-06T17:22:05.955Z,17.40
2017-09-06T17:24:33.743Z,17.50
2017-09-06T17:27:01.247Z,17.30
2017-09-06T17:29:29.520Z,17.10
2017-09-06T17:31:57.068Z,17.10
2017-09-06T17:34:24.367Z,17.00
2017-09-06T17:36:51.877Z,17.00
2017-09-06T17:39:19.459Z,16.90
2017-09-06T17:41:46.955Z,16.80
2017-09-06T17:44:14.463Z,16.80
2017-09-06T17:46:42.032Z,16.70
2017-09-06T17:49:09.547Z,16.60
2017-09-06T17:51:37.046Z,16.50
2017-09-06T17:54:04.644Z,16.50
2017-09-06T17:56:32.148Z,16.50
2017-09-06T17:58:59.652Z,16.40
2017-09-06T18:01:27.472Z,16.30
2017-09-06T18:03:54.996Z,16.30
2017-09-06T18:06:22.503Z,16.20
2017-09-06T18:08:50.072Z,16.10
2017-09-06T18:11:17.570Z,16.10
2017-09-06T18:13:45.072Z,16.00
2017-09-06T18:16:12.630Z,16.10
2017-09-06T18:18:40.135Z,16.20
2017-09-06T18:21:07.635Z,16.00
2017-09-06T18:23:35.221Z,16.10
2017-09-06T18:26:02.769Z,16.10
2017-09-06T18:28:30.275Z,16.10
2017-09-06T18:30:57.920Z,16.20
2017-09-06T18:33:25.435Z,16.20
2017-09-06T18:35:52.944Z,16.20
2017-09-06T18:38:20.514Z,16.30
2017-09-06T18:40:48.077Z,16.30
2017-09-06T18:43:15.584Z,16.20
2017-09-06T18:45:43.196Z,16.30
2017-09-06T18:48:10.759Z,16.30
2017-09-06T18:50:38.322Z,16.30
2017-09-06T18:53:05.928Z,16.30
2017-09-06T18:55:33.420Z,16.30
2017-09-06T18:58:00.983Z,16.20
2017-09-06T19:00:28.547Z,16.30
2017-09-06T19:02:56.050Z,16.30
2017-09-06T19:05:23.614Z,16.20
2017-09-06T19:07:51.498Z,16.30
2017-09-06T19:10:19.766Z,16.20
2017-09-06T19:12:47.262Z,16.10
2017-09-06T19:15:15.158Z,16.20
2017-09-06T19:17:42.741Z,16.20
2017-09-06T19:20:10.280Z,16.10
2017-09-06T19:22:37.831Z,16.10
2017-09-06T19:25:05.331Z,16.10
2017-09-06T19:27:32.882Z,16.10
2017-09-06T19:30:00.435Z,16.10
2017-09-06T19:32:27.962Z,16.10
2017-09-06T19:34:55.458Z,16.00
2017-09-06T19:37:23.019Z,16.10
2017-09-06T19:39:50.521Z,16.10
2017-09-06T19:42:18.015Z,16.10
2017-09-06T19:44:45.562Z,16.30
2017-09-06T19:47:13.094Z,16.20
2017-09-06T19:49:40.614Z,16.10
2017-09-06T19:52:08.395Z,16.10
2017-09-06T19:54:35.944Z,16.10
2017-09-06T19:57:03.452Z,16.10
2017-09-06T19:59:31.098Z,16.10
2017-09-06T20:01:58.602Z,16.10
2017-09-06T20:04:26.116Z,16.20
2017-09-06T20:06:53.709Z,16.10
2017-09-06T20:09:21.277Z,16.10
2017-09-06T20:11:48.835Z,16.00
2017-09-06T20:14:16.456Z,16.00
2017-09-06T20:16:43.961Z,16.00
2017-09-06T20:19:11.467Z,16.00
2017-09-06T20:21:39.024Z,16.10
2017-09-06T20:24:06.523Z,16.00
2017-09-06T20:26:34.070Z,16.00
2017-09-06T20:29:01.615Z,16.10
2017-09-06T20:31:29.122Z,16.00
2017-09-06T20:33:56.622Z,16.00
2017-09-06T20:36:24.215Z,16.00
2017-09-06T20:38:51.711Z,16.00
2017-09-06T20:41:19.215Z,16.00
2017-09-06T20:43:46.761Z,16.00
2017-09-06T20:46:14.265Z,16.00
2017-09-06T20:48:41.776Z,15.90
2017-09-06T20:51:09.658Z,15.90
2017-09-06T20:53:37.161Z,15.90
2017-09-06T20:56:04.675Z,15.90
2017-09-06T20:58:32.233Z,15.90
2017-09-06T21:00:59.743Z,15.90
2017-09-06T21:03:27.251Z,15.90
2017-09-06T21:05:55.058Z,15.90
2017-09-06T21:08:22.563Z,15.90
2017-09-06T21:10:50.068Z,15.70
2017-09-06T21:13:17.625Z,15.80
2017-09-06T21:15:45.127Z,15.60
2017-09-06T21:18:12.630Z,15.40
2017-09-06T21:20:40.214Z,15.10
2017-09-06T21:23:07.731Z,14.90
2017-09-06T21:25:35.260Z,14.70
2017-09-06T21:28:02.818Z,14.40
2017-09-06T21:30:30.327Z,14.20
2017-09-06T21:32:57.869Z,14.10
2017-09-06T21:35:25.407Z,14.00
2017-09-06T21:37:52.951Z,13.90
2017-09-06T21:40:20.463Z,13.90
2017-09-06T21:42:48.020Z,13.90
2017-09-06T21:45:15.566Z,13.90
2017-09-06T21:47:43.091Z,14.00
2017-09-06T21:50:10.656Z,14.10
2017-09-06T21:52:38.919Z,14.10
2017-09-06T21:55:06.422Z,14.10
2017-09-06T21:57:33.978Z,14.10
2017-09-06T22:00:01.479Z,14.20
2017-09-06T22:02:28.975Z,14.20
2017-09-06T22:04:56.539Z,14.20
2017-09-06T22:07:24.048Z,14.30
2017-09-06T22:09:51.575Z,14.30
2017-09-06T22:12:19.530Z,14.30
2017-09-06T22:14:47.030Z,14.30
2017-09-06T22:17:14.531Z,14.40
2017-09-06T22:19:42.346Z,14.40
2017-09-06T22:22:09.847Z,14.40
2017-09-06T22:24:37.348Z,14.50
2017-09-06T22:27:05.181Z,14.50
2017-09-06T22:29:32.691Z,14.60
2017-09-06T22:32:00.195Z,14.60
2017-09-06T22:34:28.003Z,14.50
2017-09-06T22:36:55.523Z,14.00
2017-09-06T22:39:23.026Z,13.60
2017-09-06T22:41:50.580Z,13.30
2017-09-06T22:44:18.080Z,13.10
2017-09-06T22:46:45.599Z,13.10
2017-09-06T22:49:13.193Z,13.00
2017-09-06T22:51:40.696Z,13.00
2017-09-06T22:54:08.195Z,13.00
2017-09-06T22:56:35.747Z,13.00
2017-09-06T22:59:03.258Z,12.90
2017-09-06T23:01:30.780Z,12.90
2017-09-06T23:03:58.359Z,12.90
2017-09-06T23:06:25.859Z,13.00
2017-09-06T23:08:53.359Z,13.00
2017-09-06T23:11:21.167Z,13.00
2017-09-06T23:13:48.666Z,12.90
2017-09-06T23:16:16.172Z,13.00
2017-09-06T23:18:43.722Z,12.90
2017-09-06T23:21:11.223Z,12.90
2017-09-06T23:23:38.739Z,12.90
2017-09-06T23:26:06.536Z,12.90
2017-09-06T23:28:34.031Z,12.90
2017-09-06T23:31:01.551Z,12.90
2017-09-06T23:33:29.111Z,12.90
2017-09-06T23:35:56.623Z,12.90
2017-09-06T23:38:24.123Z,13.00
2017-09-06T23:40:51.646Z,13.10
2017-09-06T23:43:19.247Z,13.20
2017-09-06T23:45:46.774Z,13.20
2017-09-06T23:48:14.316Z,13.10
2017-09-06T23:50:41.847Z,13.00
2017-09-06T23:53:09.347Z,12.90
2017-09-06T23:55:37.195Z,13.00
2017-09-06T23:58:04.725Z,13.20
